sensor_id;sensor_type;location;lat;lon;timestamp;pressure;altitude;pressure_sealevel;temperature;humidity
46023;BME280;31756;47.936;16.224;2023-01-27T00:02:18;98739.03;;;-0.27;100.00
46023;BME280;31756;47.936;16.224;2023-01-27T00:04:44;98751.13;;;-0.14;100.00
46023;BME280;31756;47.936;16.224;2023-01-27T00:07:10;98748.59;;;-0.14;100.00
46023;BME280;31756;47.936;16.224;2023-01-27T00:09:35;98751.25;;;-0.08;100.00
46023;BME280;31756;47.936;16.224;2023-01-27T00:12:01;98719.88;;;-0.20;100.00
46023;BME280;31756;47.936;16.224;2023-01-27T00:14:45;98747.97;;;-0.05;100.00
46023;BME280;31756;47.936;16.224;2023-01-27T00:17:11;98747.13;;;-0.04;100.00
46023;BME280;31756;47.936;16.224;2023-01-27T00:19:36;98733.59;;;-0.09;100.00
46023;BME280;31756;47.936;16.224;2023-01-27T00:22:02;98743.75;;;-0.06;100.00
46023;BME280;31756;47.936;16.224;2023-01-27T00:24:46;98744.66;;;-0.03;100.00
46023;BME280;31756;47.936;16.224;2023-01-27T00:27:12;98730.81;;;-0.20;100.00
46023;BME280;31756;47.936;16.224;2023-01-27T00:29:39;98736.88;;;-0.12;100.00
46023;BME280;31756;47.936;16.224;2023-01-27T00:32:05;98751.19;;;-0.11;100.00
46023;BME280;31756;47.936;16.224;2023-01-27T00:34:49;98745.22;;;-0.14;100.00
46023;BME280;31756;47.936;16.224;2023-01-27T00:37:15;98728.16;;;-0.26;100.00
46023;BME280;31756;47.936;16.224;2023-01-27T00:39:42;98752.81;;;-0.13;100.00
46023;BME280;31756;47.936;16.224;2023-01-27T00:42:09;98746.94;;;-0.13;100.00
46023;BME280;31756;47.936;16.224;2023-01-27T00:44:35;98757.03;;;-0.13;100.00
46023;BME280;31756;47.936;16.224;2023-01-27T00:47:00;98751.94;;;-0.15;100.00
46023;BME280;31756;47.936;16.224;2023-01-27T00:49:26;98757.84;;;-0.13;100.00
46023;BME280;31756;47.936;16.224;2023-01-27T00:51:52;98757.94;;;-0.10;100.00
46023;BME280;31756;47.936;16.224;2023-01-27T00:54:19;98768.81;;;-0.11;100.00
46023;BME280;31756;47.936;16.224;2023-01-27T00:56:45;98751.19;;;-0.11;100.00
46023;BME280;31756;47.936;16.224;2023-01-27T00:59:11;98752.91;;;-0.10;100.00
46023;BME280;31756;47.936;16.224;2023-01-27T01:01:36;98758.81;;;-0.08;100.00
46023;BME280;31756;47.936;16.224;2023-01-27T01:04:03;98742.47;;;-0.23;100.00
46023;BME280;31756;47.936;16.224;2023-01-27T01:06:29;98759.41;;;-0.18;100.00
46023;BME280;31756;47.936;16.224;2023-01-27T01:08:56;98761.09;;;-0.17;100.00
46023;BME280;31756;47.936;16.224;2023-01-27T01:11:22;98767.91;;;-0.14;100.00
46023;BME280;31756;47.936;16.224;2023-01-27T01:13:49;98767.13;;;-0.12;100.00
46023;BME280;31756;47.936;16.224;2023-01-27T01:16:18;98758.63;;;-0.15;100.00
46023;BME280;31756;47.936;16.224;2023-01-27T01:18:45;98766.19;;;-0.15;100.00
46023;BME280;31756;47.936;16.224;2023-01-27T01:21:11;98772.91;;;-0.16;100.00
46023;BME280;31756;47.936;16.224;2023-01-27T01:23:39;98732.09;;;-0.35;100.00
46023;BME280;31756;47.936;16.224;2023-01-27T01:26:05;98761.88;;;-0.19;100.00
46023;BME280;31756;47.936;16.224;2023-01-27T01:28:31;98764.53;;;-0.15;100.00
46023;BME280;31756;47.936;16.224;2023-01-27T01:31:04;98762.78;;;-0.17;100.00
46023;BME280;31756;47.936;16.224;2023-01-27T01:33:29;98756.06;;;-0.17;100.00
46023;BME280;31756;47.936;16.224;2023-01-27T01:36:03;98730.44;;;-0.33;100.00
46023;BME280;31756;47.936;16.224;2023-01-27T01:38:29;98754.38;;;-0.18;100.00
46023;BME280;31756;47.936;16.224;2023-01-27T01:40:58;98724.56;;;-0.34;100.00
46023;BME280;31756;47.936;16.224;2023-01-27T01:43:24;98743.38;;;-0.21;100.00
46023;BME280;31756;47.936;16.224;2023-01-27T01:45:55;98744.09;;;-0.25;100.00
46023;BME280;31756;47.936;16.224;2023-01-27T01:50:57;98713.44;;;-0.42;100.00
46023;BME280;31756;47.936;16.224;2023-01-27T01:53:30;98744.13;;;-0.24;100.00
46023;BME280;31756;47.936;16.224;2023-01-27T01:56:00;98722.91;;;-0.33;100.00
46023;BME280;31756;47.936;16.224;2023-01-27T01:58:29;98745.00;;;-0.23;100.00
46023;BME280;31756;47.936;16.224;2023-01-27T02:00:56;98740.00;;;-0.22;100.00
46023;BME280;31756;47.936;16.224;2023-01-27T02:03:23;98718.66;;;-0.36;100.00
46023;BME280;31756;47.936;16.224;2023-01-27T02:05:51;98710.19;;;-0.38;100.00
46023;BME280;31756;47.936;16.224;2023-01-27T02:08:51;98735.78;;;-0.23;100.00
46023;BME280;31756;47.936;16.224;2023-01-27T02:11:17;98737.44;;;-0.23;100.00
46023;BME280;31756;47.936;16.224;2023-01-27T02:13:43;98698.13;;;-0.51;100.00
46023;BME280;31756;47.936;16.224;2023-01-27T02:16:11;98743.03;;;-0.35;100.00
46023;BME280;31756;47.936;16.224;2023-01-27T02:18:40;98729.59;;;-0.34;100.00
46023;BME280;31756;47.936;16.224;2023-01-27T02:21:07;98708.34;;;-0.45;100.00
46023;BME280;31756;47.936;16.224;2023-01-27T02:23:47;98707.47;;;-0.46;100.00
46023;BME280;31756;47.936;16.224;2023-01-27T02:26:19;98718.34;;;-0.48;100.00
46023;BME280;31756;47.936;16.224;2023-01-27T02:28:53;98710.91;;;-0.43;100.00
46023;BME280;31756;47.936;16.224;2023-01-27T02:31:20;98719.19;;;-0.48;100.00
46023;BME280;31756;47.936;16.224;2023-01-27T02:33:46;98723.56;;;-0.40;100.00
46023;BME280;31756;47.936;16.224;2023-01-27T02:36:15;98682.94;;;-0.54;100.00
46023;BME280;31756;47.936;16.224;2023-01-27T02:38:49;98699.28;;;-0.38;100.00
46023;BME280;31756;47.936;16.224;2023-01-27T02:41:19;98697.66;;;-0.36;100.00
46023;BME280;31756;47.936;16.224;2023-01-27T02:43:47;98699.31;;;-0.37;100.00
46023;BME280;31756;47.936;16.224;2023-01-27T02:46:14;98684.69;;;-0.52;100.00
46023;BME280;31756;47.936;16.224;2023-01-27T02:48:40;98689.56;;;-0.58;100.00
46023;BME280;31756;47.936;16.224;2023-01-27T02:51:06;98680.84;;;-0.70;100.00
46023;BME280;31756;47.936;16.224;2023-01-27T02:53:33;98699.50;;;-0.62;100.00
46023;BME280;31756;47.936;16.224;2023-01-27T02:55:59;98660.47;;;-0.79;100.00
46023;BME280;31756;47.936;16.224;2023-01-27T02:58:25;98679.34;;;-0.62;100.00
46023;BME280;31756;47.936;16.224;2023-01-27T03:00:55;98651.94;;;-0.84;100.00
46023;BME280;31756;47.936;16.224;2023-01-27T03:03:21;98689.34;;;-0.65;100.00
46023;BME280;31756;47.936;16.224;2023-01-27T03:05:46;98690.16;;;-0.66;100.00
46023;BME280;31756;47.936;16.224;2023-01-27T03:08:18;98695.16;;;-0.68;100.00
46023;BME280;31756;47.936;16.224;2023-01-27T03:10:50;98679.06;;;-0.74;100.00
46023;BME280;31756;47.936;16.224;2023-01-27T03:13:20;98690.28;;;-0.62;100.00
46023;BME280;31756;47.936;16.224;2023-01-27T03:15:47;98687.59;;;-0.68;100.00
46023;BME280;31756;47.936;16.224;2023-01-27T03:18:32;98682.53;;;-0.69;100.00
46023;BME280;31756;47.936;16.224;2023-01-27T03:21:03;98674.25;;;-0.65;100.00
46023;BME280;31756;47.936;16.224;2023-01-27T03:23:29;98684.47;;;-0.59;100.00
46023;BME280;31756;47.936;16.224;2023-01-27T03:26:00;98647.13;;;-0.77;100.00
46023;BME280;31756;47.936;16.224;2023-01-27T03:28:27;98683.78;;;-0.54;100.00
46023;BME280;31756;47.936;16.224;2023-01-27T03:31:07;98680.47;;;-0.53;100.00
46023;BME280;31756;47.936;16.224;2023-01-27T03:33:47;98671.94;;;-0.58;100.00
46023;BME280;31756;47.936;16.224;2023-01-27T03:36:51;98657.50;;;-0.63;100.00
46023;BME280;31756;47.936;16.224;2023-01-27T03:39:35;98676.19;;;-0.55;100.00
46023;BME280;31756;47.936;16.224;2023-01-27T03:42:19;98675.41;;;-0.53;100.00
46023;BME280;31756;47.936;16.224;2023-01-27T03:45:04;98672.78;;;-0.57;100.00
46023;BME280;31756;47.936;16.224;2023-01-27T03:47:48;98670.94;;;-0.64;100.00
46023;BME280;31756;47.936;16.224;2023-01-27T03:50:14;98668.53;;;-0.60;100.00
46023;BME280;31756;47.936;16.224;2023-01-27T03:52:45;98661.84;;;-0.58;100.00
46023;BME280;31756;47.936;16.224;2023-01-27T03:55:33;98666.81;;;-0.61;100.00
46023;BME280;31756;47.936;16.224;2023-01-27T03:58:00;98667.75;;;-0.57;100.00
46023;BME280;31756;47.936;16.224;2023-01-27T04:01:10;98665.53;;;-0.45;100.00
46023;BME280;31756;47.936;16.224;2023-01-27T04:03:36;98669.28;;;-0.29;100.00
46023;BME280;31756;47.936;16.224;2023-01-27T04:06:23;98671.66;;;-0.34;100.00
46023;BME280;31756;47.936;16.224;2023-01-27T04:09:09;98679.41;;;-0.28;100.00
46023;BME280;31756;47.936;16.224;2023-01-27T04:11:35;98656.47;;;-0.38;100.00
46023;BME280;31756;47.936;16.224;2023-01-27T04:14:33;98686.59;;;-0.41;100.00
46023;BME280;31756;47.936;16.224;2023-01-27T04:17:05;98686.91;;;-0.29;100.00
46023;BME280;31756;47.936;16.224;2023-01-27T04:19:32;98678.13;;;-0.45;100.00
46023;BME280;31756;47.936;16.224;2023-01-27T04:21:59;98678.69;;;-0.55;100.00
46023;BME280;31756;47.936;16.224;2023-01-27T04:24:25;98652.78;;;-0.84;100.00
46023;BME280;31756;47.936;16.224;2023-01-27T04:26:59;98671.00;;;-0.61;100.00
46023;BME280;31756;47.936;16.224;2023-01-27T04:29:27;98676.78;;;-0.65;100.00
46023;BME280;31756;47.936;16.224;2023-01-27T04:31:54;98684.25;;;-0.35;100.00
46023;BME280;31756;47.936;16.224;2023-01-27T04:34:20;98684.53;;;-0.23;100.00
46023;BME280;31756;47.936;16.224;2023-01-27T04:36:46;98690.50;;;-0.20;100.00
46023;BME280;31756;47.936;16.224;2023-01-27T04:39:15;98682.47;;;-0.39;100.00
46023;BME280;31756;47.936;16.224;2023-01-27T04:41:41;98692.34;;;-0.47;100.00
46023;BME280;31756;47.936;16.224;2023-01-27T04:44:07;98678.38;;;-0.67;100.00
46023;BME280;31756;47.936;16.224;2023-01-27T04:46:33;98675.63;;;-0.76;100.00
46023;BME280;31756;47.936;16.224;2023-01-27T04:48:59;98689.03;;;-0.77;100.00
46023;BME280;31756;47.936;16.224;2023-01-27T04:51:25;98685.69;;;-0.78;100.00
46023;BME280;31756;47.936;16.224;2023-01-27T04:53:52;98670.50;;;-0.81;100.00
46023;BME280;31756;47.936;16.224;2023-01-27T04:56:29;98666.91;;;-0.89;100.00
46023;BME280;31756;47.936;16.224;2023-01-27T04:59:01;98676.81;;;-0.64;100.00
46023;BME280;31756;47.936;16.224;2023-01-27T05:01:27;98679.44;;;-0.59;100.00
46023;BME280;31756;47.936;16.224;2023-01-27T05:03:53;98676.00;;;-0.63;100.00
46023;BME280;31756;47.936;16.224;2023-01-27T05:06:19;98690.97;;;-0.67;100.00
46023;BME280;31756;47.936;16.224;2023-01-27T05:08:45;98681.75;;;-0.68;100.00
46023;BME280;31756;47.936;16.224;2023-01-27T05:11:11;98690.97;;;-0.67;100.00
46023;BME280;31756;47.936;16.224;2023-01-27T05:13:37;98672.00;;;-0.87;100.00
46023;BME280;31756;47.936;16.224;2023-01-27T05:16:05;98697.03;;;-0.61;100.00
46023;BME280;31756;47.936;16.224;2023-01-27T05:18:31;98690.13;;;-0.68;100.00
46023;BME280;31756;47.936;16.224;2023-01-27T05:21:00;98666.34;;;-0.79;100.00
46023;BME280;31756;47.936;16.224;2023-01-27T05:23:27;98696.97;;;-0.64;100.00
46023;BME280;31756;47.936;16.224;2023-01-27T05:28:35;98661.25;;;-0.80;100.00
46023;BME280;31756;47.936;16.224;2023-01-27T05:31:07;98685.81;;;-0.72;100.00
46023;BME280;31756;47.936;16.224;2023-01-27T05:33:33;98692.44;;;-0.75;100.00
46023;BME280;31756;47.936;16.224;2023-01-27T05:36:01;98690.78;;;-0.75;100.00
46023;BME280;31756;47.936;16.224;2023-01-27T05:38:27;98681.44;;;-0.79;100.00
46023;BME280;31756;47.936;16.224;2023-01-27T05:41:01;98692.63;;;-0.69;100.00
46023;BME280;31756;47.936;16.224;2023-01-27T05:43:28;98681.31;;;-0.85;100.00
46023;BME280;31756;47.936;16.224;2023-01-27T05:48:28;98696.28;;;-0.88;100.00
46023;BME280;31756;47.936;16.224;2023-01-27T05:50:58;98702.44;;;-0.78;100.00
46023;BME280;31756;47.936;16.224;2023-01-27T05:53:24;98702.34;;;-0.81;100.00
46023;BME280;31756;47.936;16.224;2023-01-27T05:55:50;98704.88;;;-0.81;100.00
46023;BME280;31756;47.936;16.224;2023-01-27T05:58:17;98709.13;;;-0.79;100.00
46023;BME280;31756;47.936;16.224;2023-01-27T06:00:43;98699.97;;;-0.77;100.00
46023;BME280;31756;47.936;16.224;2023-01-27T06:03:08;98701.44;;;-0.85;100.00
46023;BME280;31756;47.936;16.224;2023-01-27T06:05:34;98700.66;;;-0.82;100.00
46023;BME280;31756;47.936;16.224;2023-01-27T06:08:00;98696.59;;;-0.77;100.00
46023;BME280;31756;47.936;16.224;2023-01-27T06:10:25;98701.53;;;-0.80;100.00
46023;BME280;31756;47.936;16.224;2023-01-27T06:12:51;98683.09;;;-0.81;100.00
46023;BME280;31756;47.936;16.224;2023-01-27T06:15:16;98705.06;;;-0.74;100.00
46023;BME280;31756;47.936;16.224;2023-01-27T06:17:42;98676.03;;;-0.94;100.00
46023;BME280;31756;47.936;16.224;2023-01-27T06:20:08;98709.19;;;-0.76;100.00
46023;BME280;31756;47.936;16.224;2023-01-27T06:22:35;98692.97;;;-0.87;100.00
46023;BME280;31756;47.936;16.224;2023-01-27T06:25:00;98704.03;;;-0.80;100.00
46023;BME280;31756;47.936;16.224;2023-01-27T06:27:26;98704.81;;;-0.83;100.00
46023;BME280;31756;47.936;16.224;2023-01-27T06:29:52;98709.00;;;-0.83;100.00
46023;BME280;31756;47.936;16.224;2023-01-27T06:32:17;98697.81;;;-0.93;100.00
46023;BME280;31756;47.936;16.224;2023-01-27T06:34:43;98673.97;;;-1.07;100.00
46023;BME280;31756;47.936;16.224;2023-01-27T06:37:09;98670.56;;;-1.09;100.00
46023;BME280;31756;47.936;16.224;2023-01-27T06:39:34;98669.03;;;-1.04;100.00
46023;BME280;31756;47.936;16.224;2023-01-27T06:42:00;98706.34;;;-0.88;100.00
46023;BME280;31756;47.936;16.224;2023-01-27T06:44:26;98679.88;;;-1.07;100.00
46023;BME280;31756;47.936;16.224;2023-01-27T06:46:51;98699.53;;;-0.92;100.00
46023;BME280;31756;47.936;16.224;2023-01-27T06:49:17;98676.50;;;-1.07;100.00
46023;BME280;31756;47.936;16.224;2023-01-27T06:51:44;98663.06;;;-1.08;100.00
46023;BME280;31756;47.936;16.224;2023-01-27T06:54:09;98705.50;;;-0.88;100.00
46023;BME280;31756;47.936;16.224;2023-01-27T06:56:35;98682.53;;;-1.01;100.00
46023;BME280;31756;47.936;16.224;2023-01-27T06:59:01;98699.47;;;-0.95;100.00
46023;BME280;31756;47.936;16.224;2023-01-27T07:01:27;98710.41;;;-0.93;100.00
46023;BME280;31756;47.936;16.224;2023-01-27T07:03:53;98700.34;;;-0.93;100.00
46023;BME280;31756;47.936;16.224;2023-01-27T07:06:18;98672.13;;;-1.13;100.00
46023;BME280;31756;47.936;16.224;2023-01-27T07:08:45;98667.19;;;-1.10;100.00
46023;BME280;31756;47.936;16.224;2023-01-27T07:11:12;98711.38;;;-0.89;100.00
46023;BME280;31756;47.936;16.224;2023-01-27T07:13:38;98706.97;;;-0.97;100.00
46023;BME280;31756;47.936;16.224;2023-01-27T07:16:04;98716.41;;;-0.88;100.00
46023;BME280;31756;47.936;16.224;2023-01-27T07:18:30;98706.09;;;-0.99;100.00
46023;BME280;31756;47.936;16.224;2023-01-27T07:20:55;98730.00;;;-0.83;100.00
46023;BME280;31756;47.936;16.224;2023-01-27T07:23:21;98737.41;;;-0.87;100.00
46023;BME280;31756;47.936;16.224;2023-01-27T07:25:47;98741.72;;;-0.83;100.00
46023;BME280;31756;47.936;16.224;2023-01-27T07:28:13;98731.50;;;-0.89;100.00
46023;BME280;31756;47.936;16.224;2023-01-27T07:30:39;98744.22;;;-0.83;100.00
46023;BME280;31756;47.936;16.224;2023-01-27T07:33:11;98754.38;;;-0.80;100.00
46023;BME280;31756;47.936;16.224;2023-01-27T07:35:39;98750.19;;;-0.81;100.00
46023;BME280;31756;47.936;16.224;2023-01-27T07:38:06;98746.81;;;-0.80;100.00
46023;BME280;31756;47.936;16.224;2023-01-27T07:40:32;98719.72;;;-0.90;100.00
46023;BME280;31756;47.936;16.224;2023-01-27T07:42:59;98733.50;;;-0.78;100.00
46023;BME280;31756;47.936;16.224;2023-01-27T07:45:27;98752.91;;;-0.74;100.00
46023;BME280;31756;47.936;16.224;2023-01-27T07:47:55;98755.34;;;-0.77;100.00
46023;BME280;31756;47.936;16.224;2023-01-27T07:50:23;98726.41;;;-0.91;100.00
46023;BME280;31756;47.936;16.224;2023-01-27T07:52:49;98752.09;;;-0.73;100.00
46023;BME280;31756;47.936;16.224;2023-01-27T07:55:14;98713.28;;;-0.81;100.00
46023;BME280;31756;47.936;16.224;2023-01-27T07:57:40;98756.47;;;-0.66;100.00
46023;BME280;31756;47.936;16.224;2023-01-27T08:00:06;98749.53;;;-0.74;100.00
46023;BME280;31756;47.936;16.224;2023-01-27T08:02:37;98754.47;;;-0.77;100.00
46023;BME280;31756;47.936;16.224;2023-01-27T08:05:03;98753.78;;;-0.72;100.00
46023;BME280;31756;47.936;16.224;2023-01-27T08:07:29;98756.16;;;-0.76;100.00
46023;BME280;31756;47.936;16.224;2023-01-27T08:09:54;98741.72;;;-0.83;100.00
46023;BME280;31756;47.936;16.224;2023-01-27T08:12:21;98764.69;;;-0.71;100.00
46023;BME280;31756;47.936;16.224;2023-01-27T08:14:47;98768.13;;;-0.69;100.00
46023;BME280;31756;47.936;16.224;2023-01-27T08:17:13;98756.16;;;-0.76;100.00
46023;BME280;31756;47.936;16.224;2023-01-27T08:19:39;98772.25;;;-0.71;100.00
46023;BME280;31756;47.936;16.224;2023-01-27T08:22:04;98738.25;;;-0.87;100.00
46023;BME280;31756;47.936;16.224;2023-01-27T08:24:30;98760.66;;;-0.66;100.00
46023;BME280;31756;47.936;16.224;2023-01-27T08:26:56;98762.44;;;-0.62;100.00
46023;BME280;31756;47.936;16.224;2023-01-27T08:29:21;98767.31;;;-0.68;100.00
46023;BME280;31756;47.936;16.224;2023-01-27T08:31:47;98768.78;;;-0.75;100.00
46023;BME280;31756;47.936;16.224;2023-01-27T08:34:13;98772.34;;;-0.68;100.00
46023;BME280;31756;47.936;16.224;2023-01-27T08:36:40;98756.09;;;-0.79;100.00
46023;BME280;31756;47.936;16.224;2023-01-27T08:39:08;98771.25;;;-0.78;100.00
46023;BME280;31756;47.936;16.224;2023-01-27T08:41:35;98779.72;;;-0.74;100.00
46023;BME280;31756;47.936;16.224;2023-01-27T08:44:01;98782.31;;;-0.71;100.00
46023;BME280;31756;47.936;16.224;2023-01-27T08:46:26;98772.31;;;-0.70;100.00
46023;BME280;31756;47.936;16.224;2023-01-27T08:48:52;98775.69;;;-0.69;100.00
46023;BME280;31756;47.936;16.224;2023-01-27T08:51:18;98781.72;;;-0.63;100.00
46023;BME280;31756;47.936;16.224;2023-01-27T08:53:44;98783.97;;;-0.72;100.00
46023;BME280;31756;47.936;16.224;2023-01-27T08:56:12;98750.03;;;-0.86;100.00
46023;BME280;31756;47.936;16.224;2023-01-27T08:58:38;98782.31;;;-0.71;100.00
46023;BME280;31756;47.936;16.224;2023-01-27T09:01:05;98774.88;;;-0.67;100.00
46023;BME280;31756;47.936;16.224;2023-01-27T09:03:31;98783.56;;;-0.57;100.00
46023;BME280;31756;47.936;16.224;2023-01-27T09:05:57;98773.41;;;-0.60;100.00
46023;BME280;31756;47.936;16.224;2023-01-27T09:08:23;98776.47;;;-0.70;100.00
46023;BME280;31756;47.936;16.224;2023-01-27T09:10:50;98760.72;;;-0.63;100.00
46023;BME280;31756;47.936;16.224;2023-01-27T09:13:18;98764.53;;;-0.46;100.00
46023;BME280;31756;47.936;16.224;2023-01-27T09:15:47;98733.09;;;-0.62;100.00
46023;BME280;31756;47.936;16.224;2023-01-27T09:18:15;98766.63;;;-0.31;100.00
46023;BME280;31756;47.936;16.224;2023-01-27T09:20:40;98750.16;;;-0.50;100.00
46023;BME280;31756;47.936;16.224;2023-01-27T09:23:06;98768.44;;;-0.57;100.00
46023;BME280;31756;47.936;16.224;2023-01-27T09:25:31;98768.44;;;-0.57;100.00
46023;BME280;31756;47.936;16.224;2023-01-27T09:27:58;98761.81;;;-0.54;100.00
46023;BME280;31756;47.936;16.224;2023-01-27T09:30:25;98771.34;;;-0.43;100.00
46023;BME280;31756;47.936;16.224;2023-01-27T09:32:51;98747.19;;;-0.68;100.00
46023;BME280;31756;47.936;16.224;2023-01-27T09:35:17;98766.66;;;-0.61;100.00
46023;BME280;31756;47.936;16.224;2023-01-27T09:37:56;98755.06;;;-0.56;100.00
46023;BME280;31756;47.936;16.224;2023-01-27T09:46:44;98792.69;;;-0.29;100.00
46023;BME280;31756;47.936;16.224;2023-01-27T09:52:18;98784.13;;;-0.36;100.00
46023;BME280;31756;47.936;16.224;2023-01-27T09:57:27;98775.94;;;0.06;100.00
46023;BME280;31756;47.936;16.224;2023-01-27T10:00:20;98769.94;;;0.00;100.00
46023;BME280;31756;47.936;16.224;2023-01-27T10:03:17;98770.53;;;-0.10;100.00
46023;BME280;31756;47.936;16.224;2023-01-27T10:06:03;98766.38;;;-0.08;100.00
46023;BME280;31756;47.936;16.224;2023-01-27T10:08:35;98782.69;;;0.07;100.00
46023;BME280;31756;47.936;16.224;2023-01-27T10:11:31;98771.72;;;0.05;100.00
46023;BME280;31756;47.936;16.224;2023-01-27T10:25:29;98755.84;;;0.07;100.00
46023;BME280;31756;47.936;16.224;2023-01-27T10:28:05;98753.44;;;0.12;100.00
46023;BME280;31756;47.936;16.224;2023-01-27T10:30:35;98744.94;;;0.08;100.00
46023;BME280;31756;47.936;16.224;2023-01-27T10:33:21;98751.41;;;-0.02;100.00
46023;BME280;31756;47.936;16.224;2023-01-27T10:35:58;98766.66;;;0.03;100.00
46023;BME280;31756;47.936;16.224;2023-01-27T10:41:07;98753.13;;;-0.01;100.00
46023;BME280;31756;47.936;16.224;2023-01-27T10:46:17;98725.78;;;-0.20;100.00
46023;BME280;31756;47.936;16.224;2023-01-27T10:51:27;98755.84;;;0.09;100.00
46023;BME280;31756;47.936;16.224;2023-01-27T10:54:19;98755.66;;;0.01;100.00
46023;BME280;31756;47.936;16.224;2023-01-27T10:56:52;98733.09;;;0.04;100.00
46023;BME280;31756;47.936;16.224;2023-01-27T10:59:46;98765.13;;;0.10;100.00
46023;BME280;31756;47.936;16.224;2023-01-27T11:02:22;98708.13;;;-0.20;100.00
46023;BME280;31756;47.936;16.224;2023-01-27T11:05:06;98719.38;;;-0.07;100.00
46023;BME280;31756;47.936;16.224;2023-01-27T11:07:42;98708.41;;;-0.09;100.00
46023;BME280;31756;47.936;16.224;2023-01-27T11:10:17;98720.22;;;-0.07;100.00
46023;BME280;31756;47.936;16.224;2023-01-27T11:12:47;98740.78;;;0.10;100.00
46023;BME280;31756;47.936;16.224;2023-01-27T11:15:19;98733.03;;;0.03;100.00
46023;BME280;31756;47.936;16.224;2023-01-27T11:17:56;98727.09;;;0.00;100.00
46023;BME280;31756;47.936;16.224;2023-01-27T11:20:37;98702.56;;;-0.07;100.00
46023;BME280;31756;47.936;16.224;2023-01-27T11:23:18;98727.94;;;-0.01;100.00
46023;BME280;31756;47.936;16.224;2023-01-27T11:28:55;98728.13;;;0.09;100.00
46023;BME280;31756;47.936;16.224;2023-01-27T11:37:20;98694.09;;;-0.10;100.00
46023;BME280;31756;47.936;16.224;2023-01-27T11:39:46;98702.69;;;-0.02;100.00
46023;BME280;31756;47.936;16.224;2023-01-27T11:42:13;98720.13;;;0.25;100.00
46023;BME280;31756;47.936;16.224;2023-01-27T11:44:41;98710.31;;;-0.01;100.00
46023;BME280;31756;47.936;16.224;2023-01-27T11:47:11;98710.03;;;-0.11;100.00
46023;BME280;31756;47.936;16.224;2023-01-27T11:49:43;98728.13;;;0.07;100.00
46023;BME280;31756;47.936;16.224;2023-01-27T11:52:17;98720.66;;;0.12;100.00
46023;BME280;31756;47.936;16.224;2023-01-27T11:57:24;98696.50;;;-0.15;100.00
46023;BME280;31756;47.936;16.224;2023-01-27T11:59:54;98727.94;;;-0.01;100.00
46023;BME280;31756;47.936;16.224;2023-01-27T12:02:29;98719.47;;;-0.03;100.00
46023;BME280;31756;47.936;16.224;2023-01-27T12:05:06;98716.91;;;-0.04;100.00
46023;BME280;31756;47.936;16.224;2023-01-27T12:07:54;98696.56;;;-0.13;100.00
46023;BME280;31756;47.936;16.224;2023-01-27T12:10:29;98708.53;;;-0.03;100.00
46023;BME280;31756;47.936;16.224;2023-01-27T12:13:01;98704.41;;;-0.01;100.00
46023;BME280;31756;47.936;16.224;2023-01-27T12:15:32;98702.81;;;0.03;100.00
46023;BME280;31756;47.936;16.224;2023-01-27T12:18:02;98711.34;;;0.09;100.00
46023;BME280;31756;47.936;16.224;2023-01-27T12:20:39;98710.94;;;-0.09;100.00
46023;BME280;31756;47.936;16.224;2023-01-27T12:25:52;98714.94;;;-0.17;100.00
46023;BME280;31756;47.936;16.224;2023-01-27T12:30:51;98716.09;;;-0.05;100.00
46023;BME280;31756;47.936;16.224;2023-01-27T12:33:41;98718.25;;;-0.18;100.00
46023;BME280;31756;47.936;16.224;2023-01-27T12:36:16;98714.84;;;-0.20;100.00
46023;BME280;31756;47.936;16.224;2023-01-27T12:38:50;98703.25;;;-0.14;100.00
46023;BME280;31756;47.936;16.224;2023-01-27T12:41:30;98683.56;;;-0.28;100.00
46023;BME280;31756;47.936;16.224;2023-01-27T12:43:59;98683.38;;;-0.36;100.00
46023;BME280;31756;47.936;16.224;2023-01-27T12:46:32;98678.59;;;-0.27;100.00
46023;BME280;31756;47.936;16.224;2023-01-27T12:49:09;98708.13;;;-0.21;100.00
46023;BME280;31756;47.936;16.224;2023-01-27T12:51:39;98679.50;;;-0.23;100.00
46023;BME280;31756;47.936;16.224;2023-01-27T12:54:22;98704.19;;;-0.10;100.00
46023;BME280;31756;47.936;16.224;2023-01-27T12:56:49;98706.94;;;0.00;100.00
46023;BME280;31756;47.936;16.224;2023-01-27T12:59:17;98677.31;;;-0.10;100.00
46023;BME280;31756;47.936;16.224;2023-01-27T13:04:24;98672.22;;;-0.11;100.00
46023;BME280;31756;47.936;16.224;2023-01-27T13:07:03;98699.31;;;-0.03;100.00
46023;BME280;31756;47.936;16.224;2023-01-27T13:09:32;98702.75;;;0.01;100.00
46023;BME280;31756;47.936;16.224;2023-01-27T13:14:53;98707.47;;;-0.13;100.00
46023;BME280;31756;47.936;16.224;2023-01-27T13:17:36;98706.63;;;-0.13;100.00
46023;BME280;31756;47.936;16.224;2023-01-27T13:20:23;98711.97;;;-0.01;100.00
46023;BME280;31756;47.936;16.224;2023-01-27T13:22:53;98690.66;;;-0.14;100.00
46023;BME280;31756;47.936;16.224;2023-01-27T13:25:27;98706.03;;;-0.03;100.00
46023;BME280;31756;47.936;16.224;2023-01-27T13:27:57;98706.63;;;-0.13;100.00
46023;BME280;31756;47.936;16.224;2023-01-27T13:30:36;98709.97;;;-0.13;100.00
46023;BME280;31756;47.936;16.224;2023-01-27T13:33:36;98712.38;;;-0.19;100.00
46023;BME280;31756;47.936;16.224;2023-01-27T13:36:05;98707.38;;;-0.16;100.00
46023;BME280;31756;47.936;16.224;2023-01-27T13:44:53;98674.06;;;-0.40;100.00
46023;BME280;31756;47.936;16.224;2023-01-27T13:47:25;98701.91;;;-0.34;100.00
46023;BME280;31756;47.936;16.224;2023-01-27T13:49:57;98690.66;;;-0.47;100.00
46023;BME280;31756;47.936;16.224;2023-01-27T13:52:25;98667.97;;;-0.48;100.00
46023;BME280;31756;47.936;16.224;2023-01-27T13:54:51;98671.31;;;-0.49;100.00
46023;BME280;31756;47.936;16.224;2023-01-27T14:00:01;98708.69;;;-0.31;100.00
46023;BME280;31756;47.936;16.224;2023-01-27T14:08:46;98722.63;;;-0.11;100.00
46023;BME280;31756;47.936;16.224;2023-01-27T14:14:20;98734.25;;;-0.16;100.00
46023;BME280;31756;47.936;16.224;2023-01-27T14:20:36;98743.16;;;-0.29;100.00